Kihnu, Estonia

2:05 AM EEST on May 23, 2015 (GMT +0300)
Kuressaare | | Change Station
CLOSE
Current Station
Airport
Location: Kuressaare,
Elevation: 13 ft
Nearby Weather Stations

Elev 13 ft 58.23 °N, 22.51 °E | Updated 15 minutes ago

Partly Cloudy
Partly Cloudy
48 °F
Feels Like 48 °F
N
15
Wind Variable Wind from SSW

Today
High -- | Low -- °F
--% Chance of Precip.
Yesterday
High -- | Low -- °F
Precip. -- in
4:44 AM 9:58 PM
Waxing Crescent, 24% visible
Pressure 30.04 in
Visibility 6.2 miles
Clouds Few 1000 ft
Dew Point 45 °F
Humidity 87%
Rainfall 0.00 in
Snow Depth Not available.
UV 0 out of 12
Pollen Not available.
Air Quality Not available.
Flu Activity Not available.
METAR EEKE 222250Z AUTO 21013KT 9999NDV FEW010 09/07 Q1017

More Conditions Fewer Conditions

Pressure 30.04 in
Visibility 6.2 miles
Clouds Few 1000 ft
Dew Point 45 °F
Humidity 87%
Rainfall 0.00 in
Snow Depth Not available.
UV 0 out of 12
Pollen Not available.
Air Quality Not available.
Flu Activity Not available.
METAR EEKE 222250Z AUTO 21013KT 9999NDV FEW010 09/07 Q1017

More Conditions Fewer Conditions

10-Day Weather Forecast

Almanac

Astronomy

May. 23, 2015 Rise Set
Actual Time
Civil Twilight
Nautical Twilight
Astronomical Twilight
Moon
Length of Visible Light
Length of Day
Tomorrow will be .
, % of the Moon is Illuminated

Today's Extremes

Country Highs Country Lows

Community

WunderPhotos

Upload Photos

1,823,330 photos uploaded!

WunderBlogs® & News

Nearby

Air Quality

  Air Quality AQ Index Pollutant
Not available.

Snow Depth

Station Depth Elevation

Earthquake Activity

City Distance Mag. Time & Date
Minimum magnitude displayed is 2.5.

Coastal Water Temperatures

Place Temperature

Stations

Nearby Weather Stations

Station Location Temp. Windchill Dew Point Humidity Wind Precip. Elev Updated Type